createdAt,value
2022-08-11T00:00:12.435Z,61.41
2022-08-11T00:02:45.923Z,61.51
2022-08-11T00:05:17.585Z,61.80
2022-08-11T00:07:47.350Z,61.59
2022-08-11T00:10:18.982Z,61.88
2022-08-11T00:12:54.135Z,62.26
2022-08-11T00:15:26.305Z,62.43
2022-08-11T00:18:01.043Z,62.54
2022-08-11T00:20:33.632Z,62.34
2022-08-11T00:23:07.254Z,62.27
2022-08-11T00:25:41.652Z,62.64
2022-08-11T00:28:30.455Z,63.00
2022-08-11T00:31:04.693Z,62.96
2022-08-11T00:33:41.129Z,63.23
2022-08-11T00:36:23.463Z,62.96
2022-08-11T00:38:57.399Z,63.47
2022-08-11T00:41:38.163Z,63.32
2022-08-11T00:44:34.385Z,63.32
2022-08-11T00:47:17.153Z,63.85
2022-08-11T00:50:04.780Z,63.53
2022-08-11T00:53:00.064Z,64.09
2022-08-11T00:56:01.723Z,63.79
2022-08-11T00:59:32.215Z,63.99
2022-08-11T01:02:16.562Z,64.54
2022-08-11T01:05:30.338Z,64.60
2022-08-11T01:08:43.009Z,64.99
2022-08-11T01:11:55.994Z,64.87
2022-08-11T01:15:02.706Z,65.27
2022-08-11T01:18:08.836Z,65.22
2022-08-11T01:21:24.728Z,65.33
2022-08-11T01:24:31.930Z,66.10
2022-08-11T01:27:40.366Z,66.40
2022-08-11T01:30:49.922Z,66.48
2022-08-11T01:33:49.282Z,66.14
2022-08-11T01:36:58.776Z,66.69
2022-08-11T01:40:13.676Z,66.29
2022-08-11T01:43:33.449Z,67.09
2022-08-11T01:46:08.735Z,67.40
2022-08-11T01:48:44.716Z,67.44
2022-08-11T01:51:44.727Z,67.28
2022-08-11T01:54:26.626Z,67.46
2022-08-11T01:57:05.157Z,68.26
2022-08-11T01:59:39.442Z,68.16
2022-08-11T02:02:45.521Z,68.12
2022-08-11T02:05:28.008Z,68.23
2022-08-11T02:08:04.992Z,67.59
2022-08-11T02:10:59.469Z,67.71
2022-08-11T02:13:56.144Z,67.82
2022-08-11T02:16:39.239Z,67.94
2022-08-11T02:19:35.958Z,68.45
2022-08-11T02:22:21.641Z,68.46
2022-08-11T02:25:17.610Z,68.36
2022-08-11T02:28:08.502Z,68.04
2022-08-11T02:30:44.326Z,67.97
2022-08-11T02:33:24.639Z,68.16
2022-08-11T02:36:01.858Z,68.61
2022-08-11T02:38:37.139Z,68.37
2022-08-11T02:41:25.486Z,68.49
2022-08-11T02:44:12.477Z,67.81
2022-08-11T02:46:53.763Z,67.69
2022-08-11T02:50:00.093Z,67.96
2022-08-11T02:52:44.924Z,68.04
2022-08-11T02:55:55.763Z,67.85
2022-08-11T02:58:22.031Z,68.19
2022-08-11T03:01:11.044Z,68.06
2022-08-11T03:03:50.885Z,68.68
2022-08-11T03:06:31.649Z,68.43
2022-08-11T03:09:08.192Z,68.58
2022-08-11T03:12:13.336Z,68.79
2022-08-11T03:15:04.754Z,68.89
2022-08-11T03:17:43.721Z,68.90
2022-08-11T03:20:33.319Z,69.28
2022-08-11T03:23:19.987Z,69.27
2022-08-11T03:25:57.431Z,69.03
2022-08-11T03:28:35.589Z,69.24
2022-08-11T03:31:18.821Z,69.25
2022-08-11T03:34:07.325Z,68.89
2022-08-11T03:37:17.117Z,68.84
2022-08-11T03:40:01.908Z,69.21
2022-08-11T03:42:42.337Z,68.94
2022-08-11T03:45:24.540Z,69.50
2022-08-11T03:48:11.112Z,69.33
2022-08-11T03:51:09.914Z,69.27
2022-08-11T03:53:57.682Z,69.12
2022-08-11T03:57:05.072Z,68.85
2022-08-11T04:00:09.775Z,68.53
2022-08-11T04:03:07.655Z,68.46
2022-08-11T04:06:34.518Z,67.47
2022-08-11T04:09:52.649Z,66.69
2022-08-11T04:13:01.805Z,66.47
2022-08-11T04:16:11.085Z,65.59
2022-08-11T04:19:18.325Z,65.01
2022-08-11T04:22:10.248Z,65.03
2022-08-11T04:24:56.258Z,64.20
2022-08-11T04:28:02.726Z,63.72
2022-08-11T04:30:46.947Z,63.41
2022-08-11T04:33:43.207Z,63.63
2022-08-11T04:36:55.827Z,62.92
2022-08-11T04:39:45.275Z,62.23
2022-08-11T04:42:55.326Z,61.95
2022-08-11T04:45:44.396Z,62.32
2022-08-11T04:48:53.851Z,62.38
2022-08-11T04:52:37.924Z,62.87
2022-08-11T04:55:47.472Z,62.14
2022-08-11T04:58:37.603Z,62.26
2022-08-11T05:01:37.382Z,62.08
2022-08-11T05:04:51.203Z,61.51
2022-08-11T05:07:54.432Z,61.73
2022-08-11T05:10:45.316Z,62.50
2022-08-11T05:13:37.196Z,62.43
2022-08-11T05:16:26.795Z,62.05
2022-08-11T05:19:10.090Z,62.62
2022-08-11T05:21:54.846Z,63.00
2022-08-11T05:24:45.634Z,63.34
2022-08-11T05:27:31.130Z,63.24
2022-08-11T05:30:17.946Z,63.04
2022-08-11T05:33:11.792Z,63.09
2022-08-11T05:36:02.617Z,63.77
2022-08-11T05:38:48.829Z,63.50
2022-08-11T05:41:35.925Z,63.68
2022-08-11T05:44:22.469Z,63.74
2022-08-11T05:47:06.205Z,64.04
2022-08-11T05:49:49.695Z,64.47
2022-08-11T05:52:35.295Z,63.90
2022-08-11T05:55:25.312Z,63.76
2022-08-11T05:57:59.253Z,63.91
2022-08-11T06:00:32.036Z,64.00
2022-08-11T06:03:06.989Z,63.94
2022-08-11T06:05:43.458Z,63.70
2022-08-11T06:08:15.529Z,64.02
2022-08-11T06:10:49.766Z,63.81
2022-08-11T06:13:20.115Z,63.66
2022-08-11T06:15:55.501Z,63.32
2022-08-11T06:18:25.539Z,63.37
2022-08-11T06:20:56.817Z,63.55
2022-08-11T06:23:26.917Z,63.38
2022-08-11T06:25:56.680Z,63.04
2022-08-11T06:28:34.676Z,62.87
2022-08-11T06:31:14.588Z,62.51
2022-08-11T06:33:55.992Z,62.52
2022-08-11T06:36:33.895Z,61.87
2022-08-11T06:39:15.534Z,61.76
2022-08-11T06:41:48.850Z,61.66
2022-08-11T06:44:25.243Z,61.45
2022-08-11T06:47:00.654Z,61.18
2022-08-11T06:49:50.422Z,61.60
2022-08-11T06:52:35.264Z,61.43
2022-08-11T06:55:55.632Z,61.11
2022-08-11T06:58:12.908Z,60.23
2022-08-11T07:00:43.380Z,60.81
2022-08-11T07:03:19.178Z,60.89
2022-08-11T07:05:54.257Z,60.74
2022-08-11T07:09:10.061Z,58.89
2022-08-11T07:12:32.760Z,58.88
2022-08-11T07:16:10.718Z,59.12
2022-08-11T07:18:37.601Z,58.86
2022-08-11T07:22:00.411Z,58.67
2022-08-11T07:24:59.473Z,57.55
2022-08-11T07:27:52.033Z,56.05
2022-08-11T07:30:21.456Z,56.52
2022-08-11T07:32:54.614Z,55.37
2022-08-11T07:35:32.171Z,53.76
2022-08-11T07:38:07.844Z,54.76
2022-08-11T07:40:38.313Z,55.26
2022-08-11T07:43:09.292Z,53.54
2022-08-11T07:45:56.977Z,53.39
2022-08-11T07:48:39.291Z,53.32
2022-08-11T07:51:24.148Z,52.57
2022-08-11T07:53:58.302Z,52.55
2022-08-11T07:56:54.751Z,50.86
2022-08-11T08:00:03.760Z,51.10
2022-08-11T08:02:41.901Z,51.05
2022-08-11T08:05:24.254Z,51.36
2022-08-11T08:08:08.509Z,51.59
2022-08-11T08:10:53.314Z,50.99
2022-08-11T08:13:35.599Z,49.49
2022-08-11T08:16:17.995Z,48.77
2022-08-11T08:18:48.208Z,47.50
2022-08-11T08:21:17.544Z,45.74
2022-08-11T08:23:53.078Z,45.52
2022-08-11T08:26:39.084Z,45.17
2022-08-11T08:29:22.772Z,46.15
2022-08-11T08:31:52.983Z,46.11
2022-08-11T08:34:23.217Z,47.05
2022-08-11T08:36:53.507Z,47.96
2022-08-11T08:39:25.393Z,47.01
2022-08-11T08:41:57.946Z,46.17
2022-08-11T08:44:39.106Z,46.84
2022-08-11T08:47:14.515Z,47.40
2022-08-11T08:49:52.426Z,46.13
2022-08-11T08:52:30.958Z,45.36
2022-08-11T08:55:21.769Z,45.81
2022-08-11T08:57:54.218Z,45.50
2022-08-11T09:00:25.162Z,44.84
2022-08-11T09:02:54.892Z,44.78
2022-08-11T09:05:26.059Z,44.22
2022-08-11T09:07:57.678Z,45.04
2022-08-11T09:10:32.584Z,44.37
2022-08-11T09:13:02.887Z,44.00
2022-08-11T09:15:32.393Z,45.33
2022-08-11T09:18:05.543Z,46.14
2022-08-11T09:20:38.161Z,46.03
2022-08-11T09:24:07.789Z,45.06
2022-08-11T09:26:30.573Z,46.65
2022-08-11T09:29:02.525Z,46.42
2022-08-11T09:31:38.999Z,45.93
2022-08-11T09:34:11.662Z,45.96
2022-08-11T09:36:56.061Z,44.72
2022-08-11T09:39:42.607Z,44.71
2022-08-11T09:42:16.285Z,43.16
2022-08-11T09:44:51.851Z,41.73
2022-08-11T09:47:27.496Z,41.99
2022-08-11T09:50:01.211Z,41.17
2022-08-11T09:52:38.407Z,42.54
2022-08-11T09:55:10.619Z,42.69
2022-08-11T09:58:00.403Z,42.52
2022-08-11T10:00:36.868Z,42.12
2022-08-11T10:03:09.930Z,42.04
2022-08-11T10:05:58.967Z,41.83
2022-08-11T10:08:32.832Z,41.14
2022-08-11T10:11:03.278Z,40.16
2022-08-11T10:14:33.490Z,41.06
2022-08-11T10:16:45.324Z,40.83
2022-08-11T10:19:14.939Z,40.79
2022-08-11T10:22:06.961Z,41.04
2022-08-11T10:24:50.094Z,40.37
2022-08-11T10:27:19.812Z,40.16
2022-08-11T10:30:06.051Z,40.14
2022-08-11T10:32:58.832Z,39.54
2022-08-11T10:35:31.428Z,39.22
2022-08-11T10:38:06.352Z,40.02
2022-08-11T10:40:40.842Z,40.01
2022-08-11T10:43:13.054Z,40.06
2022-08-11T10:46:10.032Z,39.86
2022-08-11T10:48:40.909Z,38.91
2022-08-11T10:51:42.804Z,39.58
2022-08-11T10:54:20.656Z,38.74
2022-08-11T10:57:03.084Z,38.43
2022-08-11T10:59:35.701Z,37.38
2022-08-11T11:02:07.749Z,37.72
2022-08-11T11:04:54.466Z,37.83
2022-08-11T11:07:27.118Z,38.07
2022-08-11T11:09:59.927Z,37.64
2022-08-11T11:12:46.650Z,37.54
2022-08-11T11:15:32.980Z,37.83
2022-08-11T11:18:09.048Z,37.44
2022-08-11T11:20:47.403Z,38.43
2022-08-11T11:23:21.741Z,39.04
2022-08-11T11:26:15.114Z,38.40
2022-08-11T11:29:05.166Z,39.01
2022-08-11T11:31:48.011Z,38.99
2022-08-11T11:34:28.811Z,38.87
2022-08-11T11:37:00.336Z,38.27
2022-08-11T11:39:30.809Z,39.23
2022-08-11T11:42:03.914Z,38.06
2022-08-11T11:44:35.816Z,37.80
2022-08-11T11:47:06.483Z,38.11
2022-08-11T11:49:39.149Z,37.70
2022-08-11T11:52:10.418Z,37.40
2022-08-11T11:54:41.413Z,37.25
2022-08-11T11:57:23.878Z,37.22
2022-08-11T12:00:07.414Z,37.30
2022-08-11T12:02:39.901Z,37.24
2022-08-11T12:05:14.466Z,37.38
2022-08-11T12:08:05.290Z,36.99
2022-08-11T12:10:45.540Z,37.20
2022-08-11T12:13:28.364Z,36.97
2022-08-11T12:16:35.069Z,36.85
2022-08-11T12:18:53.474Z,36.25
2022-08-11T12:21:26.265Z,37.08
2022-08-11T12:24:11.162Z,36.07
2022-08-11T12:27:01.403Z,35.73
2022-08-11T12:29:45.318Z,36.62
2022-08-11T12:32:14.624Z,36.29
2022-08-11T12:34:43.947Z,36.37
2022-08-11T12:37:18.261Z,36.31
2022-08-11T12:40:16.263Z,36.44
2022-08-11T12:43:08.362Z,36.96
2022-08-11T12:45:57.863Z,36.27
2022-08-11T12:49:00.766Z,36.40
2022-08-11T12:57:49.215Z,37.34
2022-08-11T13:00:33.004Z,36.80
2022-08-11T13:03:16.321Z,36.89
2022-08-11T13:05:49.199Z,36.99
2022-08-11T13:08:19.653Z,37.19
2022-08-11T13:11:19.610Z,36.47
2022-08-11T13:13:57.411Z,36.63
2022-08-11T13:16:30.948Z,36.25
2022-08-11T13:19:14.938Z,36.04
2022-08-11T13:21:45.196Z,36.34
2022-08-11T13:24:14.518Z,36.17
2022-08-11T13:26:48.737Z,35.57
2022-08-11T13:29:24.846Z,35.55
2022-08-11T13:31:59.306Z,36.72
2022-08-11T13:38:17.387Z,36.14
2022-08-11T13:40:13.326Z,35.64
2022-08-11T13:42:42.547Z,35.46
2022-08-11T13:45:14.567Z,35.80
2022-08-11T13:47:44.998Z,35.11
2022-08-11T13:50:16.735Z,35.54
2022-08-11T13:52:50.131Z,36.32
2022-08-11T13:55:51.114Z,35.89
2022-08-11T13:58:20.746Z,36.05
2022-08-11T14:02:03.620Z,35.88
2022-08-11T14:04:30.806Z,36.43
2022-08-11T14:06:52.694Z,35.65
2022-08-11T14:09:28.070Z,36.96
2022-08-11T14:12:21.518Z,36.07
2022-08-11T14:15:08.150Z,35.99
2022-08-11T14:17:47.981Z,36.12
2022-08-11T14:20:38.541Z,36.27
2022-08-11T14:23:11.239Z,36.21
2022-08-11T14:26:05.452Z,36.14
2022-08-11T14:28:44.470Z,36.43
2022-08-11T14:31:16.341Z,36.56
2022-08-11T14:33:59.949Z,36.72
2022-08-11T14:36:34.522Z,36.12
2022-08-11T14:39:07.805Z,36.10
2022-08-11T14:42:10.512Z,36.80
2022-08-11T14:44:55.373Z,36.94
2022-08-11T14:47:26.742Z,36.93
2022-08-11T14:50:10.733Z,37.36
2022-08-11T14:52:50.074Z,36.86
2022-08-11T14:55:33.748Z,36.59
2022-08-11T14:58:04.117Z,36.77
2022-08-11T15:00:36.298Z,37.28
2022-08-11T15:03:10.041Z,38.23
2022-08-11T15:05:56.522Z,37.15
2022-08-11T15:08:43.300Z,37.74
2022-08-11T15:11:26.587Z,37.25
2022-08-11T15:13:56.913Z,37.63
2022-08-11T15:16:40.463Z,37.24
2022-08-11T15:19:10.437Z,36.78
2022-08-11T15:22:06.635Z,36.30
2022-08-11T15:24:36.486Z,36.11
2022-08-11T15:27:24.751Z,36.19
2022-08-11T15:30:20.903Z,36.45
2022-08-11T15:33:15.296Z,36.45
2022-08-11T15:35:58.009Z,36.90
2022-08-11T15:38:31.004Z,37.14
2022-08-11T15:41:15.739Z,37.35
2022-08-11T15:44:04.415Z,36.14
2022-08-11T15:46:42.008Z,36.51
2022-08-11T15:49:22.158Z,37.63
2022-08-11T15:52:02.051Z,37.28
2022-08-11T15:54:39.662Z,37.80
2022-08-11T15:57:30.478Z,38.05
2022-08-11T16:00:24.413Z,37.51
2022-08-11T16:03:12.427Z,37.56
2022-08-11T16:05:52.926Z,37.48
2022-08-11T16:08:32.596Z,36.68
2022-08-11T16:11:07.779Z,36.36
2022-08-11T16:13:54.153Z,36.47
2022-08-11T16:16:23.779Z,36.64
2022-08-11T16:19:41.520Z,37.15
2022-08-11T16:22:13.589Z,37.17
2022-08-11T16:27:01.428Z,36.85
2022-08-11T16:27:42.694Z,36.29
2022-08-11T16:30:15.045Z,36.28
2022-08-11T16:32:49.013Z,36.77
2022-08-11T16:35:35.746Z,37.22
2022-08-11T16:38:19.419Z,37.38
2022-08-11T16:40:51.102Z,37.41
2022-08-11T16:43:37.871Z,37.46
2022-08-11T16:46:21.999Z,37.68
2022-08-11T16:48:53.255Z,38.51
2022-08-11T16:51:24.176Z,38.53
2022-08-11T16:54:04.397Z,39.28
2022-08-11T16:56:39.286Z,39.89
2022-08-11T16:59:14.408Z,40.06
2022-08-11T17:01:46.581Z,40.71
2022-08-11T17:04:35.934Z,40.99
2022-08-11T17:07:23.453Z,41.40
2022-08-11T17:10:39.360Z,42.03
2022-08-11T17:13:23.331Z,42.04
2022-08-11T17:16:09.105Z,42.33
2022-08-11T17:18:45.086Z,43.11
2022-08-11T17:21:19.462Z,43.57
2022-08-11T17:23:51.929Z,43.75
2022-08-11T17:26:25.023Z,44.11
2022-08-11T17:28:58.645Z,44.10
2022-08-11T17:31:45.385Z,44.27
2022-08-11T17:34:31.935Z,44.58
2022-08-11T17:37:01.999Z,45.09
2022-08-11T17:39:35.377Z,45.60
2022-08-11T17:42:18.451Z,46.12
2022-08-11T17:45:02.722Z,46.08
2022-08-11T17:47:48.591Z,46.18
2022-08-11T17:50:19.094Z,46.13
2022-08-11T17:53:02.873Z,46.44
2022-08-11T17:55:52.120Z,46.30
2022-08-11T17:58:36.499Z,46.56
2022-08-11T18:01:09.372Z,47.24
2022-08-11T18:03:57.321Z,47.25
2022-08-11T18:06:33.587Z,47.23
2022-08-11T18:09:20.731Z,47.52
2022-08-11T18:12:10.236Z,48.58
2022-08-11T18:14:56.911Z,48.51
2022-08-11T18:17:39.433Z,48.04
2022-08-11T18:20:26.687Z,47.84
2022-08-11T18:23:11.281Z,47.61
2022-08-11T18:25:58.790Z,47.56
2022-08-11T18:28:47.615Z,47.68
2022-08-11T18:31:31.754Z,47.73
2022-08-11T18:34:19.312Z,48.20
2022-08-11T18:37:07.649Z,48.16
2022-08-11T18:39:57.363Z,50.04
2022-08-11T18:42:42.339Z,52.36
2022-08-11T18:45:28.825Z,50.71
2022-08-11T18:48:18.595Z,49.58
2022-08-11T18:51:36.289Z,49.99
2022-08-11T18:54:11.870Z,48.70
2022-08-11T18:56:56.607Z,48.58
2022-08-11T18:59:46.050Z,48.72
2022-08-11T19:02:31.483Z,48.36
2022-08-11T19:05:16.804Z,48.75
2022-08-11T19:08:03.532Z,48.46
2022-08-11T19:10:48.592Z,48.34
2022-08-11T19:13:34.559Z,48.60
2022-08-11T19:16:19.167Z,48.68
2022-08-11T19:19:02.606Z,48.66
2022-08-11T19:21:45.861Z,48.88
2022-08-11T19:24:29.590Z,49.27
2022-08-11T19:27:14.892Z,49.42
2022-08-11T19:30:04.833Z,49.75
2022-08-11T19:32:57.104Z,49.24
2022-08-11T19:35:40.076Z,49.16
2022-08-11T19:38:23.692Z,49.44
2022-08-11T19:41:07.107Z,49.59
2022-08-11T19:43:54.263Z,49.85
2022-08-11T19:46:45.471Z,49.55
2022-08-11T19:49:29.381Z,50.38
2022-08-11T19:52:12.173Z,50.15
2022-08-11T19:54:57.037Z,50.26
2022-08-11T19:57:40.534Z,49.86
2022-08-11T20:00:29.970Z,50.68
2022-08-11T20:03:13.697Z,51.14
2022-08-11T20:05:59.647Z,51.00
2022-08-11T20:08:45.024Z,51.01
2022-08-11T20:11:29.915Z,51.35
2022-08-11T20:14:14.154Z,52.03
2022-08-11T20:17:02.351Z,53.00
2022-08-11T20:19:56.143Z,54.55
2022-08-11T20:22:40.122Z,54.85
2022-08-11T20:25:25.120Z,55.55
2022-08-11T20:28:08.386Z,56.09
2022-08-11T20:30:51.741Z,56.63
2022-08-11T20:33:37.787Z,57.34
2022-08-11T20:36:22.523Z,56.43
2022-08-11T20:39:05.497Z,55.79
2022-08-11T20:41:58.802Z,55.39
2022-08-11T20:44:43.626Z,55.57
2022-08-11T20:47:26.582Z,54.84
2022-08-11T20:50:19.414Z,54.40
2022-08-11T20:53:04.979Z,54.63
2022-08-11T20:55:53.215Z,55.14
2022-08-11T20:59:11.245Z,55.31
2022-08-11T21:01:41.092Z,55.44
2022-08-11T21:04:23.814Z,56.01
2022-08-11T21:07:10.055Z,56.46
2022-08-11T21:10:01.069Z,56.41
2022-08-11T21:12:55.549Z,57.12
2022-08-11T21:15:47.578Z,57.38
2022-08-11T21:18:45.372Z,57.07
2022-08-11T21:21:29.797Z,57.31
2022-08-11T21:24:33.489Z,57.22
2022-08-11T21:27:21.748Z,57.41
2022-08-11T21:30:08.035Z,56.94
2022-08-11T21:32:51.547Z,57.70
2022-08-11T21:35:34.538Z,57.65
2022-08-11T21:38:18.979Z,57.92
2022-08-11T21:41:05.717Z,58.46
2022-08-11T21:43:48.745Z,58.56
2022-08-11T21:46:36.347Z,58.75
2022-08-11T21:49:21.493Z,58.55
2022-08-11T21:52:03.795Z,58.69
2022-08-11T21:54:46.915Z,58.95
2022-08-11T21:57:31.843Z,58.52
2022-08-11T22:00:14.735Z,58.97
2022-08-11T22:03:00.595Z,59.44
2022-08-11T22:05:47.899Z,59.52
2022-08-11T22:08:30.433Z,59.69
2022-08-11T22:11:13.279Z,59.89
2022-08-11T22:14:05.835Z,60.26
2022-08-11T22:16:50.136Z,60.23
2022-08-11T22:19:36.097Z,60.70
2022-08-11T22:22:19.331Z,60.98
2022-08-11T22:25:08.429Z,61.52
2022-08-11T22:27:59.040Z,61.84
2022-08-11T22:30:43.681Z,62.53
2022-08-11T22:33:28.993Z,62.76
2022-08-11T22:36:12.614Z,62.80
2022-08-11T22:38:56.529Z,63.44
2022-08-11T22:41:39.427Z,63.92
2022-08-11T22:44:22.015Z,64.04
2022-08-11T22:47:08.627Z,65.08
2022-08-11T22:49:57.697Z,65.53
2022-08-11T22:52:41.372Z,66.89
2022-08-11T22:55:25.042Z,67.98
2022-08-11T22:58:08.411Z,68.90
2022-08-11T23:00:51.603Z,68.91
2022-08-11T23:03:38.158Z,68.28
2022-08-11T23:06:21.802Z,67.30
2022-08-11T23:09:05.716Z,66.98
2022-08-11T23:12:07.250Z,65.78
2022-08-11T23:14:53.242Z,65.36
2022-08-11T23:17:35.674Z,66.29
2022-08-11T23:20:30.263Z,68.12
2022-08-11T23:23:15.919Z,67.43
2022-08-11T23:26:00.238Z,67.87
2022-08-11T23:28:47.194Z,68.98
2022-08-11T23:31:50.405Z,68.36
2022-08-11T23:35:02.459Z,69.08
2022-08-11T23:37:40.894Z,71.11
2022-08-11T23:40:25.166Z,71.34
2022-08-11T23:43:08.599Z,71.35
2022-08-11T23:45:52.273Z,72.28
2022-08-11T23:48:34.774Z,72.55
2022-08-11T23:51:18.261Z,70.73
2022-08-11T23:54:08.076Z,70.00
2022-08-11T23:56:51.019Z,68.66
2022-08-11T23:59:34.335Z,68.39
